Terminal Aerodrome Forecast
Issued by NWS Blacksburg, VA

Home | Current Version | Previous Version | Text Only | Print | Product List | Glossary On
Versions: 1 2 3 4 5 6 7 8 9 10 11 12 13 14 15 16 17 18 19 20 21 22 23 24 25 26 27 28 29 30 31 32 33 34
129
FTUS41 KRNK 212337
TAFDAN
TAF
KDAN 212337Z 2200/2224 00000KT 6SM -RA SCT001 OVC005
      TEMPO 2207/2210 1/4SM FG OVC001
     FM221100 00000KT 1SM BR VCSH SCT001 OVC003
     FM221200 00000KT 4SM -RA OVC001
     FM221500 09005KT 6SM -SHRA OVC001
     FM221700 12006KT 2SM RA OVC008=

USA.gov is the U.S. government's official web portal to all federal, state and local government web resources and services.